Main page
METAR-TAF:

METAR-TAF

Airports :

Belfast City, Northern Ireland

George Best Belfast City Airport

latitude: 54-36N, longitude: 005-53W, elevation: 5 m

Current weather observation

The report was made 27 minutes ago, at 06:50 UTC
Wind 6 kt from the South/Southeast
Temperature 18°C
Humidity 77%
Pressure 1016 hPa
Visibility: 8000 m

METAR: EGAC 260650Z 16006KT 8000 NSC 18/14 Q1016

Time: 08:17 (07:17 UTC)

Forecast

The report was made 1 hour and 15 minutes ago, at 06:02 UTC
Forecast valid from 26 at 06 UTC to 26 at 15 UTC
Wind 3 kt from variable directions
Visibility: 8000 m
Few clouds at a height of 4000 ft
Becoming
from 26 at 06 UTC to 26 at 08 UTC
Wind 12 kt from the Southeast
Visibility 10 km or more
Probability 30% :
Temporary
from 26 at 09 UTC to 26 at 15 UTC
Wind 15 kt from the South/Southeast with gusts up to 25 kt

TAF: EGAC 260602Z 2606/2615 VRB03KT 8000 FEW040 BECMG 2606/2608 14012KT 9999 PROB30 TEMPO 2609/2615 15015G25KT

Weather observations and forecasts of more than 4000 airports (METAR and TAF reports).

The available stations are represented by yellow and red dots on the map.

Hover mouse over dot to see the name of the station.

Then click to see weather observations and forecasts.

To change the map : click on the green buttons with a black cross to zoom in, on the green button with a dash to zoom out, or on the green arrows for adjacent maps.


METAR-TAF: